sensor_id;sensor_type;location;lat;lon;timestamp;P1;durP1;ratioP1;P2;durP2;ratioP2
20611;SDS011;10465;42.686;23.364;2022-08-04T00:00:06;9.75;;;7.25;;
20611;SDS011;10465;42.686;23.364;2022-08-04T00:05:28;9.48;;;7.60;;
20611;SDS011;10465;42.686;23.364;2022-08-04T00:10:43;10.30;;;8.15;;
20611;SDS011;10465;42.686;23.364;2022-08-04T00:13:13;10.35;;;7.50;;
20611;SDS011;10465;42.686;23.364;2022-08-04T00:15:41;9.40;;;7.50;;
20611;SDS011;10465;42.686;23.364;2022-08-04T00:18:07;9.65;;;6.50;;
20611;SDS011;10465;42.686;23.364;2022-08-04T00:20:38;12.05;;;6.45;;
20611;SDS011;10465;42.686;23.364;2022-08-04T00:23:06;7.88;;;6.28;;
20611;SDS011;10465;42.686;23.364;2022-08-04T00:25:32;7.50;;;5.80;;
20611;SDS011;10465;42.686;23.364;2022-08-04T00:27:59;9.70;;;6.30;;
20611;SDS011;10465;42.686;23.364;2022-08-04T00:30:26;6.93;;;5.93;;
20611;SDS011;10465;42.686;23.364;2022-08-04T00:32:51;8.13;;;6.15;;
20611;SDS011;10465;42.686;23.364;2022-08-04T00:35:18;9.73;;;5.75;;
20611;SDS011;10465;42.686;23.364;2022-08-04T00:37:44;8.52;;;5.50;;
20611;SDS011;10465;42.686;23.364;2022-08-04T00:43:18;9.68;;;6.03;;
20611;SDS011;10465;42.686;23.364;2022-08-04T01:05:06;9.15;;;6.25;;
20611;SDS011;10465;42.686;23.364;2022-08-04T01:10:18;8.02;;;5.45;;
20611;SDS011;10465;42.686;23.364;2022-08-04T01:15:59;5.50;;;5.00;;
20611;SDS011;10465;42.686;23.364;2022-08-04T01:24:04;5.80;;;4.82;;
20611;SDS011;10465;42.686;23.364;2022-08-04T01:29:20;5.65;;;4.50;;
20611;SDS011;10465;42.686;23.364;2022-08-04T01:31:49;5.60;;;4.53;;
20611;SDS011;10465;42.686;23.364;2022-08-04T01:34:23;10.02;;;5.15;;
20611;SDS011;10465;42.686;23.364;2022-08-04T01:36:57;6.43;;;5.05;;
20611;SDS011;10465;42.686;23.364;2022-08-04T01:39:30;5.25;;;4.75;;
20611;SDS011;10465;42.686;23.364;2022-08-04T01:42:05;5.50;;;5.00;;
20611;SDS011;10465;42.686;23.364;2022-08-04T01:44:31;7.70;;;5.10;;
20611;SDS011;10465;42.686;23.364;2022-08-04T01:46:59;5.05;;;4.53;;
20611;SDS011;10465;42.686;23.364;2022-08-04T01:49:27;5.38;;;4.68;;
20611;SDS011;10465;42.686;23.364;2022-08-04T01:51:55;7.35;;;5.50;;
20611;SDS011;10465;42.686;23.364;2022-08-04T01:54:21;8.70;;;5.43;;
20611;SDS011;10465;42.686;23.364;2022-08-04T01:56:48;6.15;;;5.55;;
20611;SDS011;10465;42.686;23.364;2022-08-04T01:59:14;6.43;;;5.38;;
20611;SDS011;10465;42.686;23.364;2022-08-04T02:01:43;6.88;;;5.95;;
20611;SDS011;10465;42.686;23.364;2022-08-04T02:04:15;7.60;;;6.22;;
20611;SDS011;10465;42.686;23.364;2022-08-04T02:11:39;8.13;;;6.05;;
20611;SDS011;10465;42.686;23.364;2022-08-04T02:14:18;8.25;;;6.10;;
20611;SDS011;10465;42.686;23.364;2022-08-04T02:17:11;6.90;;;6.20;;
20611;SDS011;10465;42.686;23.364;2022-08-04T02:22:24;7.85;;;6.90;;
20611;SDS011;10465;42.686;23.364;2022-08-04T02:24:56;7.55;;;6.18;;
20611;SDS011;10465;42.686;23.364;2022-08-04T02:27:29;10.25;;;7.07;;
20611;SDS011;10465;42.686;23.364;2022-08-04T02:30:02;8.07;;;7.28;;
20611;SDS011;10465;42.686;23.364;2022-08-04T02:32:29;8.43;;;7.00;;
20611;SDS011;10465;42.686;23.364;2022-08-04T02:35:25;8.52;;;6.93;;
20611;SDS011;10465;42.686;23.364;2022-08-04T02:37:59;8.70;;;7.30;;
20611;SDS011;10465;42.686;23.364;2022-08-04T02:40:30;9.13;;;7.68;;
20611;SDS011;10465;42.686;23.364;2022-08-04T02:42:56;8.05;;;6.95;;
20611;SDS011;10465;42.686;23.364;2022-08-04T02:45:24;7.78;;;6.90;;
20611;SDS011;10465;42.686;23.364;2022-08-04T02:47:52;7.78;;;6.97;;
20611;SDS011;10465;42.686;23.364;2022-08-04T02:50:19;8.88;;;7.50;;
20611;SDS011;10465;42.686;23.364;2022-08-04T02:52:46;9.55;;;7.30;;
20611;SDS011;10465;42.686;23.364;2022-08-04T02:55:16;7.82;;;7.03;;
20611;SDS011;10465;42.686;23.364;2022-08-04T02:57:43;8.80;;;6.55;;
20611;SDS011;10465;42.686;23.364;2022-08-04T03:00:12;9.88;;;7.00;;
20611;SDS011;10465;42.686;23.364;2022-08-04T03:05:27;7.50;;;6.80;;
20611;SDS011;10465;42.686;23.364;2022-08-04T03:18:48;6.82;;;6.13;;
20611;SDS011;10465;42.686;23.364;2022-08-04T03:30:50;7.30;;;5.70;;
20611;SDS011;10465;42.686;23.364;2022-08-04T03:33:39;8.27;;;5.72;;
20611;SDS011;10465;42.686;23.364;2022-08-04T03:48:02;6.47;;;5.80;;
20611;SDS011;10465;42.686;23.364;2022-08-04T03:50:41;7.18;;;6.47;;
20611;SDS011;10465;42.686;23.364;2022-08-04T04:27:21;12.73;;;9.15;;
20611;SDS011;10465;42.686;23.364;2022-08-04T04:29:59;9.70;;;8.70;;
20611;SDS011;10465;42.686;23.364;2022-08-04T04:45:39;11.07;;;9.70;;
20611;SDS011;10465;42.686;23.364;2022-08-04T04:48:08;11.50;;;10.27;;
20611;SDS011;10465;42.686;23.364;2022-08-04T04:53:24;13.68;;;10.02;;
20611;SDS011;10465;42.686;23.364;2022-08-04T04:58:25;12.05;;;9.90;;
20611;SDS011;10465;42.686;23.364;2022-08-04T05:04:05;12.05;;;10.30;;
20611;SDS011;10465;42.686;23.364;2022-08-04T05:12:32;13.27;;;10.18;;
20611;SDS011;10465;42.686;23.364;2022-08-04T05:15:07;11.90;;;10.45;;
20611;SDS011;10465;42.686;23.364;2022-08-04T05:17:39;11.50;;;10.25;;
20611;SDS011;10465;42.686;23.364;2022-08-04T05:20:10;14.05;;;10.65;;
20611;SDS011;10465;42.686;23.364;2022-08-04T05:22:44;12.07;;;10.15;;
20611;SDS011;10465;42.686;23.364;2022-08-04T05:25:22;12.00;;;10.63;;
20611;SDS011;10465;42.686;23.364;2022-08-04T05:28:04;14.18;;;12.45;;
20611;SDS011;10465;42.686;23.364;2022-08-04T05:30:34;13.70;;;12.25;;
20611;SDS011;10465;42.686;23.364;2022-08-04T05:33:08;14.15;;;10.77;;
20611;SDS011;10465;42.686;23.364;2022-08-04T05:35:51;11.82;;;10.63;;
20611;SDS011;10465;42.686;23.364;2022-08-04T05:38:21;13.55;;;11.48;;
20611;SDS011;10465;42.686;23.364;2022-08-04T05:40:50;19.55;;;15.77;;
20611;SDS011;10465;42.686;23.364;2022-08-04T05:43:18;23.23;;;17.92;;
20611;SDS011;10465;42.686;23.364;2022-08-04T05:45:47;20.83;;;15.75;;
20611;SDS011;10465;42.686;23.364;2022-08-04T05:48:15;15.88;;;12.50;;
20611;SDS011;10465;42.686;23.364;2022-08-04T05:50:41;28.67;;;20.65;;
20611;SDS011;10465;42.686;23.364;2022-08-04T05:53:09;29.23;;;21.42;;
20611;SDS011;10465;42.686;23.364;2022-08-04T05:55:35;17.88;;;14.80;;
20611;SDS011;10465;42.686;23.364;2022-08-04T05:58:01;17.10;;;13.50;;
20611;SDS011;10465;42.686;23.364;2022-08-04T06:00:27;15.00;;;10.85;;
20611;SDS011;10465;42.686;23.364;2022-08-04T06:02:54;11.23;;;9.57;;
20611;SDS011;10465;42.686;23.364;2022-08-04T06:05:21;11.52;;;9.95;;
20611;SDS011;10465;42.686;23.364;2022-08-04T06:07:48;12.93;;;10.30;;
20611;SDS011;10465;42.686;23.364;2022-08-04T06:10:14;9.68;;;8.77;;
20611;SDS011;10465;42.686;23.364;2022-08-04T06:12:43;10.80;;;8.93;;
20611;SDS011;10465;42.686;23.364;2022-08-04T06:15:13;11.02;;;9.63;;
20611;SDS011;10465;42.686;23.364;2022-08-04T06:17:50;12.07;;;9.13;;
20611;SDS011;10465;42.686;23.364;2022-08-04T06:20:19;12.77;;;8.85;;
20611;SDS011;10465;42.686;23.364;2022-08-04T06:22:54;10.63;;;9.18;;
20611;SDS011;10465;42.686;23.364;2022-08-04T06:25:24;12.15;;;9.13;;
20611;SDS011;10465;42.686;23.364;2022-08-04T06:27:53;12.43;;;9.90;;
20611;SDS011;10465;42.686;23.364;2022-08-04T06:30:20;19.85;;;10.90;;
20611;SDS011;10465;42.686;23.364;2022-08-04T06:32:50;14.48;;;9.75;;
20611;SDS011;10465;42.686;23.364;2022-08-04T06:35:20;14.85;;;10.07;;
20611;SDS011;10465;42.686;23.364;2022-08-04T06:37:48;12.65;;;9.48;;
20611;SDS011;10465;42.686;23.364;2022-08-04T06:40:17;13.48;;;9.60;;
20611;SDS011;10465;42.686;23.364;2022-08-04T06:42:44;19.63;;;13.23;;
20611;SDS011;10465;42.686;23.364;2022-08-04T06:45:11;16.85;;;14.05;;
20611;SDS011;10465;42.686;23.364;2022-08-04T06:47:38;15.93;;;13.48;;
20611;SDS011;10465;42.686;23.364;2022-08-04T06:50:06;17.17;;;13.02;;
20611;SDS011;10465;42.686;23.364;2022-08-04T06:52:33;21.00;;;13.75;;
20611;SDS011;10465;42.686;23.364;2022-08-04T06:54:59;16.30;;;13.98;;
20611;SDS011;10465;42.686;23.364;2022-08-04T06:57:28;19.08;;;13.02;;
20611;SDS011;10465;42.686;23.364;2022-08-04T06:59:57;18.70;;;13.40;;
20611;SDS011;10465;42.686;23.364;2022-08-04T07:02:44;18.00;;;12.55;;
20611;SDS011;10465;42.686;23.364;2022-08-04T07:05:13;14.32;;;11.80;;
20611;SDS011;10465;42.686;23.364;2022-08-04T07:07:39;16.15;;;12.93;;
20611;SDS011;10465;42.686;23.364;2022-08-04T07:10:05;17.60;;;13.85;;
20611;SDS011;10465;42.686;23.364;2022-08-04T07:12:31;15.18;;;12.55;;
20611;SDS011;10465;42.686;23.364;2022-08-04T07:14:58;16.40;;;12.40;;
20611;SDS011;10465;42.686;23.364;2022-08-04T07:17:24;14.18;;;11.48;;
20611;SDS011;10465;42.686;23.364;2022-08-04T07:19:50;15.73;;;13.70;;
20611;SDS011;10465;42.686;23.364;2022-08-04T07:22:17;17.38;;;13.18;;
20611;SDS011;10465;42.686;23.364;2022-08-04T07:24:43;15.20;;;12.98;;
20611;SDS011;10465;42.686;23.364;2022-08-04T07:27:09;13.85;;;11.07;;
20611;SDS011;10465;42.686;23.364;2022-08-04T07:29:34;13.75;;;10.52;;
20611;SDS011;10465;42.686;23.364;2022-08-04T07:32:00;16.90;;;11.23;;
20611;SDS011;10465;42.686;23.364;2022-08-04T07:34:27;16.98;;;12.05;;
20611;SDS011;10465;42.686;23.364;2022-08-04T07:36:54;16.67;;;12.23;;
20611;SDS011;10465;42.686;23.364;2022-08-04T07:39:23;14.93;;;10.68;;
20611;SDS011;10465;42.686;23.364;2022-08-04T07:41:50;14.20;;;10.98;;
20611;SDS011;10465;42.686;23.364;2022-08-04T07:44:16;12.00;;;10.70;;
20611;SDS011;10465;42.686;23.364;2022-08-04T07:46:42;14.77;;;11.73;;
20611;SDS011;10465;42.686;23.364;2022-08-04T07:49:10;13.50;;;10.25;;
20611;SDS011;10465;42.686;23.364;2022-08-04T07:51:37;10.40;;;9.30;;
20611;SDS011;10465;42.686;23.364;2022-08-04T07:54:04;13.55;;;9.88;;
20611;SDS011;10465;42.686;23.364;2022-08-04T07:56:32;15.27;;;8.98;;
20611;SDS011;10465;42.686;23.364;2022-08-04T07:59:00;12.20;;;9.23;;
20611;SDS011;10465;42.686;23.364;2022-08-04T08:01:26;10.57;;;9.23;;
20611;SDS011;10465;42.686;23.364;2022-08-04T08:03:52;15.60;;;9.77;;
20611;SDS011;10465;42.686;23.364;2022-08-04T08:06:20;10.48;;;9.30;;
20611;SDS011;10465;42.686;23.364;2022-08-04T08:08:46;13.10;;;10.25;;
20611;SDS011;10465;42.686;23.364;2022-08-04T08:11:11;11.80;;;10.25;;
20611;SDS011;10465;42.686;23.364;2022-08-04T08:13:38;11.13;;;8.98;;
20611;SDS011;10465;42.686;23.364;2022-08-04T08:16:03;9.65;;;8.40;;
20611;SDS011;10465;42.686;23.364;2022-08-04T08:18:30;13.38;;;8.55;;
20611;SDS011;10465;42.686;23.364;2022-08-04T08:20:56;9.80;;;8.13;;
20611;SDS011;10465;42.686;23.364;2022-08-04T08:23:22;9.55;;;7.60;;
20611;SDS011;10465;42.686;23.364;2022-08-04T08:25:48;10.05;;;7.38;;
20611;SDS011;10465;42.686;23.364;2022-08-04T08:28:14;8.00;;;7.18;;
20611;SDS011;10465;42.686;23.364;2022-08-04T08:30:42;9.25;;;6.70;;
20611;SDS011;10465;42.686;23.364;2022-08-04T08:33:08;8.77;;;7.03;;
20611;SDS011;10465;42.686;23.364;2022-08-04T08:38:10;6.78;;;5.68;;
20611;SDS011;10465;42.686;23.364;2022-08-04T08:41:03;8.13;;;6.45;;
20611;SDS011;10465;42.686;23.364;2022-08-04T08:43:45;7.03;;;5.82;;
20611;SDS011;10465;42.686;23.364;2022-08-04T08:46:43;8.30;;;5.70;;
20611;SDS011;10465;42.686;23.364;2022-08-04T09:01:09;11.65;;;7.38;;
20611;SDS011;10465;42.686;23.364;2022-08-04T09:07:04;6.63;;;5.55;;
20611;SDS011;10465;42.686;23.364;2022-08-04T09:10:32;6.70;;;5.45;;
20611;SDS011;10465;42.686;23.364;2022-08-04T09:20:55;5.72;;;5.13;;
20611;SDS011;10465;42.686;23.364;2022-08-04T09:32:05;6.43;;;4.97;;
20611;SDS011;10465;42.686;23.364;2022-08-04T09:40:55;7.07;;;5.32;;
20611;SDS011;10465;42.686;23.364;2022-08-04T09:43:12;6.40;;;5.13;;
20611;SDS011;10465;42.686;23.364;2022-08-04T09:51:20;6.78;;;5.47;;
20611;SDS011;10465;42.686;23.364;2022-08-04T09:54:08;7.70;;;5.93;;
20611;SDS011;10465;42.686;23.364;2022-08-04T09:56:51;5.68;;;5.13;;
20611;SDS011;10465;42.686;23.364;2022-08-04T10:02:17;6.95;;;4.20;;
20611;SDS011;10465;42.686;23.364;2022-08-04T10:04:47;5.55;;;4.60;;
20611;SDS011;10465;42.686;23.364;2022-08-04T10:15:45;5.10;;;4.60;;
20611;SDS011;10465;42.686;23.364;2022-08-04T10:29:05;4.78;;;4.28;;
20611;SDS011;10465;42.686;23.364;2022-08-04T10:31:47;3.83;;;3.53;;
20611;SDS011;10465;42.686;23.364;2022-08-04T10:34:58;4.47;;;3.90;;
20611;SDS011;10465;42.686;23.364;2022-08-04T10:37:38;4.32;;;3.92;;
20611;SDS011;10465;42.686;23.364;2022-08-04T10:52:06;3.72;;;3.42;;
20611;SDS011;10465;42.686;23.364;2022-08-04T10:57:20;5.50;;;4.25;;
20611;SDS011;10465;42.686;23.364;2022-08-04T11:05:38;4.32;;;3.20;;
20611;SDS011;10465;42.686;23.364;2022-08-04T11:08:11;3.60;;;3.08;;
20611;SDS011;10465;42.686;23.364;2022-08-04T11:10:42;4.57;;;3.78;;
20611;SDS011;10465;42.686;23.364;2022-08-04T11:13:12;4.22;;;3.25;;
20611;SDS011;10465;42.686;23.364;2022-08-04T11:15:40;4.68;;;3.00;;
20611;SDS011;10465;42.686;23.364;2022-08-04T11:18:18;4.18;;;3.55;;
20611;SDS011;10465;42.686;23.364;2022-08-04T11:24:02;5.05;;;3.13;;
20611;SDS011;10465;42.686;23.364;2022-08-04T11:26:37;3.78;;;3.08;;
20611;SDS011;10465;42.686;23.364;2022-08-04T11:31:50;5.30;;;3.67;;
20611;SDS011;10465;42.686;23.364;2022-08-04T11:34:21;3.72;;;3.33;;
20611;SDS011;10465;42.686;23.364;2022-08-04T11:39:50;3.97;;;3.33;;
20611;SDS011;10465;42.686;23.364;2022-08-04T11:42:22;4.28;;;3.15;;
20611;SDS011;10465;42.686;23.364;2022-08-04T11:44:57;3.53;;;3.20;;
20611;SDS011;10465;42.686;23.364;2022-08-04T11:47:27;4.75;;;3.10;;
20611;SDS011;10465;42.686;23.364;2022-08-04T11:50:12;3.80;;;3.40;;
20611;SDS011;10465;42.686;23.364;2022-08-04T11:52:44;5.15;;;3.30;;
20611;SDS011;10465;42.686;23.364;2022-08-04T11:55:12;4.68;;;3.63;;
20611;SDS011;10465;42.686;23.364;2022-08-04T11:57:40;3.78;;;2.90;;
20611;SDS011;10465;42.686;23.364;2022-08-04T12:00:08;5.65;;;3.55;;
20611;SDS011;10465;42.686;23.364;2022-08-04T12:05:05;4.30;;;3.90;;
20611;SDS011;10465;42.686;23.364;2022-08-04T12:07:51;7.25;;;3.88;;
20611;SDS011;10465;42.686;23.364;2022-08-04T12:18:58;4.72;;;2.80;;
20611;SDS011;10465;42.686;23.364;2022-08-04T12:21:34;4.45;;;3.45;;
20611;SDS011;10465;42.686;23.364;2022-08-04T12:24:07;3.60;;;3.30;;
20611;SDS011;10465;42.686;23.364;2022-08-04T12:26:57;4.28;;;3.88;;
20611;SDS011;10465;42.686;23.364;2022-08-04T12:29:29;4.90;;;3.58;;
20611;SDS011;10465;42.686;23.364;2022-08-04T12:32:15;4.25;;;3.47;;
20611;SDS011;10465;42.686;23.364;2022-08-04T12:34:47;3.20;;;2.90;;
20611;SDS011;10465;42.686;23.364;2022-08-04T12:37:22;3.88;;;3.13;;
20611;SDS011;10465;42.686;23.364;2022-08-04T12:39:59;3.35;;;3.05;;
20611;SDS011;10465;42.686;23.364;2022-08-04T12:42:44;3.72;;;3.13;;
20611;SDS011;10465;42.686;23.364;2022-08-04T12:45:16;4.55;;;3.42;;
20611;SDS011;10465;42.686;23.364;2022-08-04T12:47:42;2.95;;;2.75;;
20611;SDS011;10465;42.686;23.364;2022-08-04T12:50:12;3.78;;;3.30;;
20611;SDS011;10465;42.686;23.364;2022-08-04T12:52:42;3.90;;;3.50;;
20611;SDS011;10465;42.686;23.364;2022-08-04T12:55:11;4.07;;;3.10;;
20611;SDS011;10465;42.686;23.364;2022-08-04T12:57:37;4.75;;;2.95;;
20611;SDS011;10465;42.686;23.364;2022-08-04T13:00:05;5.75;;;3.15;;
20611;SDS011;10465;42.686;23.364;2022-08-04T13:02:40;3.92;;;3.10;;
20611;SDS011;10465;42.686;23.364;2022-08-04T13:05:10;4.43;;;3.05;;
20611;SDS011;10465;42.686;23.364;2022-08-04T13:07:41;3.35;;;3.05;;
20611;SDS011;10465;42.686;23.364;2022-08-04T13:10:13;3.30;;;3.00;;
20611;SDS011;10465;42.686;23.364;2022-08-04T13:12:40;3.42;;;3.13;;
20611;SDS011;10465;42.686;23.364;2022-08-04T13:15:20;3.72;;;3.35;;
20611;SDS011;10465;42.686;23.364;2022-08-04T13:17:49;3.35;;;3.05;;
20611;SDS011;10465;42.686;23.364;2022-08-04T13:20:16;3.50;;;3.20;;
20611;SDS011;10465;42.686;23.364;2022-08-04T13:22:48;3.67;;;3.38;;
20611;SDS011;10465;42.686;23.364;2022-08-04T13:25:13;3.90;;;3.55;;
20611;SDS011;10465;42.686;23.364;2022-08-04T13:27:39;7.38;;;4.50;;
20611;SDS011;10465;42.686;23.364;2022-08-04T13:30:10;3.72;;;3.42;;
20611;SDS011;10465;42.686;23.364;2022-08-04T13:32:37;4.07;;;3.35;;
20611;SDS011;10465;42.686;23.364;2022-08-04T13:35:03;3.78;;;3.45;;
20611;SDS011;10465;42.686;23.364;2022-08-04T13:37:35;4.22;;;3.30;;
20611;SDS011;10465;42.686;23.364;2022-08-04T13:40:04;4.90;;;3.40;;
20611;SDS011;10465;42.686;23.364;2022-08-04T13:42:33;3.80;;;3.50;;
20611;SDS011;10465;42.686;23.364;2022-08-04T13:44:59;4.00;;;3.38;;
20611;SDS011;10465;42.686;23.364;2022-08-04T13:47:35;3.40;;;3.10;;
20611;SDS011;10465;42.686;23.364;2022-08-04T13:50:16;3.15;;;2.88;;
20611;SDS011;10465;42.686;23.364;2022-08-04T13:52:45;5.95;;;3.95;;
20611;SDS011;10465;42.686;23.364;2022-08-04T13:55:21;5.43;;;4.50;;
20611;SDS011;10465;42.686;23.364;2022-08-04T13:57:49;4.97;;;3.88;;
20611;SDS011;10465;42.686;23.364;2022-08-04T14:00:19;5.47;;;3.70;;
20611;SDS011;10465;42.686;23.364;2022-08-04T14:02:50;5.50;;;3.60;;
20611;SDS011;10465;42.686;23.364;2022-08-04T14:05:27;4.90;;;3.58;;
20611;SDS011;10465;42.686;23.364;2022-08-04T14:08:41;4.53;;;3.65;;
20611;SDS011;10465;42.686;23.364;2022-08-04T14:10:53;3.50;;;3.20;;
20611;SDS011;10465;42.686;23.364;2022-08-04T14:13:30;3.88;;;3.58;;
20611;SDS011;10465;42.686;23.364;2022-08-04T14:15:57;3.85;;;3.50;;
20611;SDS011;10465;42.686;23.364;2022-08-04T14:18:24;3.65;;;3.28;;
20611;SDS011;10465;42.686;23.364;2022-08-04T14:21:05;3.85;;;3.53;;
20611;SDS011;10465;42.686;23.364;2022-08-04T14:23:37;7.75;;;3.95;;
20611;SDS011;10465;42.686;23.364;2022-08-04T14:26:28;5.25;;;3.60;;
20611;SDS011;10465;42.686;23.364;2022-08-04T14:28:54;4.05;;;3.67;;
20611;SDS011;10465;42.686;23.364;2022-08-04T14:31:24;4.00;;;3.60;;
20611;SDS011;10465;42.686;23.364;2022-08-04T14:33:51;3.85;;;3.53;;
20611;SDS011;10465;42.686;23.364;2022-08-04T14:36:18;4.97;;;3.80;;
20611;SDS011;10465;42.686;23.364;2022-08-04T14:38:49;4.35;;;3.28;;
20611;SDS011;10465;42.686;23.364;2022-08-04T14:41:22;5.07;;;4.63;;
20611;SDS011;10465;42.686;23.364;2022-08-04T14:43:59;4.93;;;4.13;;
20611;SDS011;10465;42.686;23.364;2022-08-04T14:46:27;7.43;;;3.83;;
20611;SDS011;10465;42.686;23.364;2022-08-04T14:51:40;5.97;;;3.60;;
20611;SDS011;10465;42.686;23.364;2022-08-04T14:54:07;3.55;;;3.25;;
20611;SDS011;10465;42.686;23.364;2022-08-04T14:56:34;3.97;;;3.67;;
20611;SDS011;10465;42.686;23.364;2022-08-04T14:59:01;3.40;;;3.10;;
20611;SDS011;10465;42.686;23.364;2022-08-04T15:01:29;5.30;;;2.97;;
20611;SDS011;10465;42.686;23.364;2022-08-04T15:03:55;3.92;;;3.53;;
20611;SDS011;10465;42.686;23.364;2022-08-04T15:06:25;4.22;;;3.55;;
20611;SDS011;10465;42.686;23.364;2022-08-04T15:08:53;3.30;;;3.00;;
20611;SDS011;10465;42.686;23.364;2022-08-04T15:11:20;4.07;;;3.67;;
20611;SDS011;10465;42.686;23.364;2022-08-04T15:13:46;6.13;;;3.47;;
20611;SDS011;10465;42.686;23.364;2022-08-04T15:16:13;3.97;;;3.50;;
20611;SDS011;10465;42.686;23.364;2022-08-04T15:18:39;5.07;;;4.00;;
20611;SDS011;10465;42.686;23.364;2022-08-04T15:21:06;4.90;;;4.00;;
20611;SDS011;10465;42.686;23.364;2022-08-04T15:23:32;4.47;;;3.80;;
20611;SDS011;10465;42.686;23.364;2022-08-04T15:25:59;7.82;;;4.00;;
20611;SDS011;10465;42.686;23.364;2022-08-04T15:28:28;4.65;;;4.07;;
20611;SDS011;10465;42.686;23.364;2022-08-04T15:30:56;4.88;;;4.10;;
20611;SDS011;10465;42.686;23.364;2022-08-04T15:33:23;6.97;;;4.10;;
20611;SDS011;10465;42.686;23.364;2022-08-04T15:35:53;11.20;;;4.97;;
20611;SDS011;10465;42.686;23.364;2022-08-04T15:38:38;9.10;;;4.50;;
20611;SDS011;10465;42.686;23.364;2022-08-04T15:41:09;6.78;;;5.10;;
20611;SDS011;10465;42.686;23.364;2022-08-04T15:49:20;8.07;;;4.68;;
20611;SDS011;10465;42.686;23.364;2022-08-04T15:51:46;5.93;;;5.28;;
20611;SDS011;10465;42.686;23.364;2022-08-04T15:54:24;8.25;;;7.38;;
20611;SDS011;10465;42.686;23.364;2022-08-04T15:56:50;5.80;;;5.25;;
20611;SDS011;10465;42.686;23.364;2022-08-04T15:59:16;6.57;;;5.55;;
20611;SDS011;10465;42.686;23.364;2022-08-04T16:05:27;6.28;;;4.85;;
20611;SDS011;10465;42.686;23.364;2022-08-04T16:07:53;5.03;;;4.50;;
20611;SDS011;10465;42.686;23.364;2022-08-04T16:12:55;5.40;;;4.85;;
20611;SDS011;10465;42.686;23.364;2022-08-04T16:18:01;5.50;;;4.80;;
20611;SDS011;10465;42.686;23.364;2022-08-04T16:20:27;6.43;;;5.72;;
20611;SDS011;10465;42.686;23.364;2022-08-04T16:22:54;4.68;;;4.28;;
20611;SDS011;10465;42.686;23.364;2022-08-04T16:25:45;4.95;;;4.25;;
20611;SDS011;10465;42.686;23.364;2022-08-04T16:30:59;6.78;;;5.03;;
20611;SDS011;10465;42.686;23.364;2022-08-04T16:33:35;6.00;;;4.50;;
20611;SDS011;10465;42.686;23.364;2022-08-04T16:36:04;8.63;;;4.85;;
20611;SDS011;10465;42.686;23.364;2022-08-04T16:38:31;7.00;;;4.47;;
20611;SDS011;10465;42.686;23.364;2022-08-04T16:40:58;5.43;;;4.90;;
20611;SDS011;10465;42.686;23.364;2022-08-04T16:43:28;8.75;;;5.22;;
20611;SDS011;10465;42.686;23.364;2022-08-04T16:45:56;5.15;;;4.65;;
20611;SDS011;10465;42.686;23.364;2022-08-04T16:48:35;6.32;;;4.50;;
20611;SDS011;10465;42.686;23.364;2022-08-04T16:51:05;4.90;;;4.40;;
20611;SDS011;10465;42.686;23.364;2022-08-04T16:53:44;4.43;;;4.03;;
20611;SDS011;10465;42.686;23.364;2022-08-04T16:56:13;4.90;;;4.45;;
20611;SDS011;10465;42.686;23.364;2022-08-04T16:58:43;4.90;;;4.43;;
20611;SDS011;10465;42.686;23.364;2022-08-04T17:01:13;6.13;;;4.18;;
20611;SDS011;10465;42.686;23.364;2022-08-04T17:03:50;4.28;;;3.85;;
20611;SDS011;10465;42.686;23.364;2022-08-04T17:06:16;4.65;;;4.25;;
20611;SDS011;10465;42.686;23.364;2022-08-04T17:08:42;7.00;;;5.05;;
20611;SDS011;10465;42.686;23.364;2022-08-04T17:11:09;7.72;;;4.45;;
20611;SDS011;10465;42.686;23.364;2022-08-04T17:13:39;6.57;;;4.40;;
20611;SDS011;10465;42.686;23.364;2022-08-04T17:16:11;4.70;;;4.20;;
20611;SDS011;10465;42.686;23.364;2022-08-04T17:18:50;4.63;;;4.22;;
20611;SDS011;10465;42.686;23.364;2022-08-04T17:21:18;5.25;;;4.57;;
20611;SDS011;10465;42.686;23.364;2022-08-04T17:23:58;9.55;;;4.40;;
20611;SDS011;10465;42.686;23.364;2022-08-04T17:26:26;5.10;;;4.60;;
20611;SDS011;10465;42.686;23.364;2022-08-04T17:28:53;5.72;;;4.60;;
20611;SDS011;10465;42.686;23.364;2022-08-04T17:31:21;4.85;;;4.35;;
20611;SDS011;10465;42.686;23.364;2022-08-04T17:33:49;5.53;;;4.40;;
20611;SDS011;10465;42.686;23.364;2022-08-04T17:36:17;6.10;;;4.38;;
20611;SDS011;10465;42.686;23.364;2022-08-04T17:38:48;6.65;;;4.30;;
20611;SDS011;10465;42.686;23.364;2022-08-04T17:41:19;5.60;;;4.75;;
20611;SDS011;10465;42.686;23.364;2022-08-04T17:51:41;4.95;;;4.35;;
20611;SDS011;10465;42.686;23.364;2022-08-04T17:54:19;6.57;;;4.60;;
20611;SDS011;10465;42.686;23.364;2022-08-04T17:56:53;6.32;;;4.40;;
20611;SDS011;10465;42.686;23.364;2022-08-04T18:07:07;9.77;;;5.45;;
20611;SDS011;10465;42.686;23.364;2022-08-04T18:09:38;6.03;;;5.20;;
20611;SDS011;10465;42.686;23.364;2022-08-04T18:12:06;5.75;;;5.22;;
20611;SDS011;10465;42.686;23.364;2022-08-04T18:14:46;6.07;;;5.43;;
20611;SDS011;10465;42.686;23.364;2022-08-04T18:17:14;7.75;;;5.32;;
20611;SDS011;10465;42.686;23.364;2022-08-04T18:19:56;7.82;;;6.00;;
20611;SDS011;10465;42.686;23.364;2022-08-04T18:22:22;8.88;;;5.80;;
20611;SDS011;10465;42.686;23.364;2022-08-04T18:24:48;6.47;;;5.68;;
20611;SDS011;10465;42.686;23.364;2022-08-04T18:27:14;7.78;;;5.65;;
20611;SDS011;10465;42.686;23.364;2022-08-04T18:29:41;7.60;;;6.10;;
20611;SDS011;10465;42.686;23.364;2022-08-04T18:32:07;6.88;;;6.18;;
20611;SDS011;10465;42.686;23.364;2022-08-04T18:34:33;6.63;;;5.80;;
20611;SDS011;10465;42.686;23.364;2022-08-04T18:36:59;7.05;;;5.45;;
20611;SDS011;10465;42.686;23.364;2022-08-04T18:39:25;7.78;;;5.38;;
20611;SDS011;10465;42.686;23.364;2022-08-04T18:41:52;7.28;;;5.60;;
20611;SDS011;10465;42.686;23.364;2022-08-04T18:44:18;8.88;;;5.75;;
20611;SDS011;10465;42.686;23.364;2022-08-04T18:46:44;6.88;;;6.03;;
20611;SDS011;10465;42.686;23.364;2022-08-04T18:49:10;7.55;;;6.30;;
20611;SDS011;10465;42.686;23.364;2022-08-04T18:51:36;11.23;;;7.15;;
20611;SDS011;10465;42.686;23.364;2022-08-04T18:54:02;10.68;;;7.60;;
20611;SDS011;10465;42.686;23.364;2022-08-04T18:56:29;10.40;;;8.40;;
20611;SDS011;10465;42.686;23.364;2022-08-04T18:58:55;9.05;;;7.30;;
